sensor_id;sensor_type;location;lat;lon;timestamp;P1;durP1;ratioP1;P2;durP2;ratioP2
48161;SDS011;33950;48.154;16.316;2023-02-15T00:01:04;46.33;;;22.05;;
48161;SDS011;33950;48.154;16.316;2023-02-15T00:03:51;40.70;;;17.83;;
48161;SDS011;33950;48.154;16.316;2023-02-15T00:06:37;48.05;;;22.88;;
48161;SDS011;33950;48.154;16.316;2023-02-15T00:09:23;47.92;;;21.65;;
48161;SDS011;33950;48.154;16.316;2023-02-15T00:12:09;43.90;;;20.92;;
48161;SDS011;33950;48.154;16.316;2023-02-15T00:14:57;48.95;;;21.73;;
48161;SDS011;33950;48.154;16.316;2023-02-15T00:17:43;48.80;;;22.80;;
48161;SDS011;33950;48.154;16.316;2023-02-15T00:20:29;51.97;;;22.75;;
48161;SDS011;33950;48.154;16.316;2023-02-15T00:23:15;52.03;;;23.92;;
48161;SDS011;33950;48.154;16.316;2023-02-15T00:26:05;49.22;;;22.75;;
48161;SDS011;33950;48.154;16.316;2023-02-15T00:28:51;48.25;;;23.05;;
48161;SDS011;33950;48.154;16.316;2023-02-15T00:31:39;46.95;;;21.70;;
48161;SDS011;33950;48.154;16.316;2023-02-15T00:34:25;47.38;;;21.75;;
48161;SDS011;33950;48.154;16.316;2023-02-15T00:37:12;65.15;;;23.95;;
48161;SDS011;33950;48.154;16.316;2023-02-15T00:39:58;49.42;;;23.73;;
48161;SDS011;33950;48.154;16.316;2023-02-15T00:42:44;52.33;;;24.42;;
48161;SDS011;33950;48.154;16.316;2023-02-15T00:45:30;49.28;;;23.52;;
48161;SDS011;33950;48.154;16.316;2023-02-15T00:48:18;47.47;;;23.40;;
48161;SDS011;33950;48.154;16.316;2023-02-15T00:51:04;46.42;;;22.23;;
48161;SDS011;33950;48.154;16.316;2023-02-15T00:53:51;46.42;;;21.58;;
48161;SDS011;33950;48.154;16.316;2023-02-15T00:56:37;55.83;;;24.58;;
48161;SDS011;33950;48.154;16.316;2023-02-15T00:59:23;48.08;;;22.38;;
48161;SDS011;33950;48.154;16.316;2023-02-15T01:02:09;49.88;;;22.95;;
48161;SDS011;33950;48.154;16.316;2023-02-15T01:04:56;48.95;;;22.63;;
48161;SDS011;33950;48.154;16.316;2023-02-15T01:07:42;50.88;;;23.23;;
48161;SDS011;33950;48.154;16.316;2023-02-15T01:10:28;47.58;;;21.50;;
48161;SDS011;33950;48.154;16.316;2023-02-15T01:13:15;48.45;;;22.10;;
48161;SDS011;33950;48.154;16.316;2023-02-15T01:16:02;48.00;;;22.65;;
48161;SDS011;33950;48.154;16.316;2023-02-15T01:18:48;50.30;;;22.67;;
48161;SDS011;33950;48.154;16.316;2023-02-15T01:21:36;49.38;;;22.75;;
48161;SDS011;33950;48.154;16.316;2023-02-15T01:24:22;47.85;;;22.38;;
48161;SDS011;33950;48.154;16.316;2023-02-15T01:27:08;51.67;;;23.15;;
48161;SDS011;33950;48.154;16.316;2023-02-15T01:29:54;49.28;;;22.27;;
48161;SDS011;33950;48.154;16.316;2023-02-15T01:32:40;53.83;;;23.63;;
48161;SDS011;33950;48.154;16.316;2023-02-15T01:35:27;52.97;;;23.52;;
48161;SDS011;33950;48.154;16.316;2023-02-15T01:38:15;48.10;;;22.92;;
48161;SDS011;33950;48.154;16.316;2023-02-15T01:41:01;54.05;;;23.35;;
48161;SDS011;33950;48.154;16.316;2023-02-15T01:47:26;46.28;;;21.83;;
48161;SDS011;33950;48.154;16.316;2023-02-15T01:50:18;55.05;;;24.05;;
48161;SDS011;33950;48.154;16.316;2023-02-15T01:53:08;51.40;;;22.52;;
48161;SDS011;33950;48.154;16.316;2023-02-15T01:56:00;51.38;;;23.38;;
48161;SDS011;33950;48.154;16.316;2023-02-15T01:58:50;48.47;;;22.35;;
48161;SDS011;33950;48.154;16.316;2023-02-15T02:01:39;53.50;;;21.70;;
48161;SDS011;33950;48.154;16.316;2023-02-15T02:04:25;49.33;;;23.02;;
48161;SDS011;33950;48.154;16.316;2023-02-15T02:07:17;49.58;;;22.63;;
48161;SDS011;33950;48.154;16.316;2023-02-15T02:10:06;53.33;;;23.30;;
48161;SDS011;33950;48.154;16.316;2023-02-15T02:12:58;49.85;;;23.48;;
48161;SDS011;33950;48.154;16.316;2023-02-15T02:15:47;53.95;;;23.52;;
48161;SDS011;33950;48.154;16.316;2023-02-15T02:18:42;52.75;;;23.73;;
48161;SDS011;33950;48.154;16.316;2023-02-15T02:25:29;48.35;;;21.50;;
48161;SDS011;33950;48.154;16.316;2023-02-15T02:28:44;46.95;;;22.13;;
48161;SDS011;33950;48.154;16.316;2023-02-15T02:31:49;46.60;;;21.83;;
48161;SDS011;33950;48.154;16.316;2023-02-15T02:34:55;53.17;;;23.85;;
48161;SDS011;33950;48.154;16.316;2023-02-15T02:37:48;47.55;;;22.48;;
48161;SDS011;33950;48.154;16.316;2023-02-15T02:40:43;48.03;;;22.85;;
48161;SDS011;33950;48.154;16.316;2023-02-15T02:43:38;48.85;;;22.17;;
48161;SDS011;33950;48.154;16.316;2023-02-15T02:46:35;51.47;;;23.20;;
48161;SDS011;33950;48.154;16.316;2023-02-15T02:49:30;49.35;;;23.00;;
48161;SDS011;33950;48.154;16.316;2023-02-15T02:52:38;51.45;;;23.33;;
48161;SDS011;33950;48.154;16.316;2023-02-15T02:55:27;56.10;;;23.35;;
48161;SDS011;33950;48.154;16.316;2023-02-15T02:58:18;52.05;;;22.80;;
48161;SDS011;33950;48.154;16.316;2023-02-15T03:01:09;55.75;;;24.65;;
48161;SDS011;33950;48.154;16.316;2023-02-15T03:03:59;51.95;;;24.33;;
48161;SDS011;33950;48.154;16.316;2023-02-15T03:06:50;51.70;;;23.45;;
48161;SDS011;33950;48.154;16.316;2023-02-15T03:09:42;52.00;;;24.63;;
48161;SDS011;33950;48.154;16.316;2023-02-15T03:12:34;49.67;;;23.73;;
48161;SDS011;33950;48.154;16.316;2023-02-15T03:15:23;54.85;;;25.15;;
48161;SDS011;33950;48.154;16.316;2023-02-15T03:18:34;51.08;;;22.50;;
48161;SDS011;33950;48.154;16.316;2023-02-15T03:21:26;49.47;;;23.00;;
48161;SDS011;33950;48.154;16.316;2023-02-15T03:24:17;52.28;;;23.23;;
48161;SDS011;33950;48.154;16.316;2023-02-15T03:27:09;51.97;;;22.60;;
48161;SDS011;33950;48.154;16.316;2023-02-15T03:29:58;52.17;;;24.15;;
48161;SDS011;33950;48.154;16.316;2023-02-15T03:32:47;54.75;;;24.80;;
48161;SDS011;33950;48.154;16.316;2023-02-15T03:35:36;50.97;;;23.52;;
48161;SDS011;33950;48.154;16.316;2023-02-15T03:38:29;53.05;;;22.95;;
48161;SDS011;33950;48.154;16.316;2023-02-15T03:41:22;54.55;;;22.75;;
48161;SDS011;33950;48.154;16.316;2023-02-15T03:44:13;48.65;;;22.80;;
48161;SDS011;33950;48.154;16.316;2023-02-15T03:47:04;47.88;;;22.35;;
48161;SDS011;33950;48.154;16.316;2023-02-15T03:49:54;56.15;;;24.30;;
48161;SDS011;33950;48.154;16.316;2023-02-15T03:52:45;48.47;;;23.50;;
48161;SDS011;33950;48.154;16.316;2023-02-15T03:55:31;57.88;;;24.98;;
48161;SDS011;33950;48.154;16.316;2023-02-15T03:58:19;51.15;;;23.83;;
48161;SDS011;33950;48.154;16.316;2023-02-15T04:01:26;52.17;;;23.83;;
48161;SDS011;33950;48.154;16.316;2023-02-15T04:04:35;50.45;;;22.90;;
48161;SDS011;33950;48.154;16.316;2023-02-15T04:07:22;57.00;;;24.88;;
48161;SDS011;33950;48.154;16.316;2023-02-15T04:10:09;51.22;;;23.30;;
48161;SDS011;33950;48.154;16.316;2023-02-15T04:13:13;54.97;;;24.10;;
48161;SDS011;33950;48.154;16.316;2023-02-15T04:15:59;54.67;;;24.15;;
48161;SDS011;33950;48.154;16.316;2023-02-15T04:18:50;52.53;;;24.80;;
48161;SDS011;33950;48.154;16.316;2023-02-15T04:21:55;51.75;;;23.42;;
48161;SDS011;33950;48.154;16.316;2023-02-15T04:25:00;54.58;;;22.60;;
48161;SDS011;33950;48.154;16.316;2023-02-15T04:27:56;53.88;;;23.60;;
48161;SDS011;33950;48.154;16.316;2023-02-15T04:30:42;59.20;;;25.25;;
48161;SDS011;33950;48.154;16.316;2023-02-15T04:33:28;51.65;;;23.33;;
48161;SDS011;33950;48.154;16.316;2023-02-15T04:36:16;52.95;;;23.67;;
48161;SDS011;33950;48.154;16.316;2023-02-15T04:39:02;54.20;;;24.38;;
48161;SDS011;33950;48.154;16.316;2023-02-15T04:41:48;57.40;;;26.70;;
48161;SDS011;33950;48.154;16.316;2023-02-15T04:44:34;54.28;;;24.02;;
48161;SDS011;33950;48.154;16.316;2023-02-15T04:47:20;52.50;;;24.25;;
48161;SDS011;33950;48.154;16.316;2023-02-15T04:50:07;56.25;;;24.70;;
48161;SDS011;33950;48.154;16.316;2023-02-15T04:52:54;52.72;;;23.13;;
48161;SDS011;33950;48.154;16.316;2023-02-15T04:55:41;52.25;;;24.10;;
48161;SDS011;33950;48.154;16.316;2023-02-15T04:58:27;52.95;;;24.13;;
48161;SDS011;33950;48.154;16.316;2023-02-15T05:01:13;51.75;;;23.08;;
48161;SDS011;33950;48.154;16.316;2023-02-15T05:03:59;56.10;;;24.00;;
48161;SDS011;33950;48.154;16.316;2023-02-15T05:06:45;53.63;;;23.60;;
48161;SDS011;33950;48.154;16.316;2023-02-15T05:09:33;60.67;;;23.58;;
48161;SDS011;33950;48.154;16.316;2023-02-15T05:12:19;59.42;;;25.48;;
48161;SDS011;33950;48.154;16.316;2023-02-15T05:15:05;52.60;;;25.35;;
48161;SDS011;33950;48.154;16.316;2023-02-15T05:17:51;53.22;;;25.00;;
48161;SDS011;33950;48.154;16.316;2023-02-15T05:20:37;54.38;;;23.42;;
48161;SDS011;33950;48.154;16.316;2023-02-15T05:23:23;49.72;;;22.48;;
48161;SDS011;33950;48.154;16.316;2023-02-15T05:26:11;54.97;;;25.25;;
48161;SDS011;33950;48.154;16.316;2023-02-15T05:29:19;54.47;;;23.35;;
48161;SDS011;33950;48.154;16.316;2023-02-15T05:32:05;53.83;;;23.02;;
48161;SDS011;33950;48.154;16.316;2023-02-15T05:34:52;58.63;;;25.42;;
48161;SDS011;33950;48.154;16.316;2023-02-15T05:37:38;51.30;;;24.60;;
48161;SDS011;33950;48.154;16.316;2023-02-15T05:40:24;53.17;;;23.92;;
48161;SDS011;33950;48.154;16.316;2023-02-15T05:43:11;53.25;;;23.33;;
48161;SDS011;33950;48.154;16.316;2023-02-15T05:45:57;52.35;;;22.55;;
48161;SDS011;33950;48.154;16.316;2023-02-15T05:48:44;55.13;;;23.48;;
48161;SDS011;33950;48.154;16.316;2023-02-15T05:51:30;51.50;;;22.55;;
48161;SDS011;33950;48.154;16.316;2023-02-15T05:54:16;49.53;;;22.08;;
48161;SDS011;33950;48.154;16.316;2023-02-15T05:57:02;48.60;;;22.45;;
48161;SDS011;33950;48.154;16.316;2023-02-15T05:59:49;50.92;;;22.42;;
48161;SDS011;33950;48.154;16.316;2023-02-15T06:02:36;54.05;;;24.15;;
48161;SDS011;33950;48.154;16.316;2023-02-15T06:05:22;53.60;;;23.60;;
48161;SDS011;33950;48.154;16.316;2023-02-15T06:08:08;58.40;;;23.25;;
48161;SDS011;33950;48.154;16.316;2023-02-15T06:10:54;65.45;;;27.15;;
48161;SDS011;33950;48.154;16.316;2023-02-15T06:13:41;59.95;;;23.13;;
48161;SDS011;33950;48.154;16.316;2023-02-15T06:16:28;56.80;;;24.95;;
48161;SDS011;33950;48.154;16.316;2023-02-15T06:19:15;57.75;;;25.40;;
48161;SDS011;33950;48.154;16.316;2023-02-15T06:22:01;55.58;;;24.15;;
48161;SDS011;33950;48.154;16.316;2023-02-15T06:24:47;50.28;;;23.10;;
48161;SDS011;33950;48.154;16.316;2023-02-15T06:27:33;63.75;;;24.30;;
48161;SDS011;33950;48.154;16.316;2023-02-15T06:30:19;54.53;;;25.13;;
48161;SDS011;33950;48.154;16.316;2023-02-15T06:33:07;60.15;;;23.85;;
48161;SDS011;33950;48.154;16.316;2023-02-15T06:35:53;56.65;;;25.20;;
48161;SDS011;33950;48.154;16.316;2023-02-15T06:38:39;53.53;;;24.13;;
48161;SDS011;33950;48.154;16.316;2023-02-15T06:41:25;59.63;;;24.33;;
48161;SDS011;33950;48.154;16.316;2023-02-15T06:44:11;54.03;;;24.42;;
48161;SDS011;33950;48.154;16.316;2023-02-15T06:46:57;50.25;;;22.38;;
48161;SDS011;33950;48.154;16.316;2023-02-15T06:49:45;51.90;;;22.90;;
48161;SDS011;33950;48.154;16.316;2023-02-15T06:52:31;53.47;;;23.00;;
48161;SDS011;33950;48.154;16.316;2023-02-15T06:55:17;53.35;;;23.70;;
48161;SDS011;33950;48.154;16.316;2023-02-15T06:58:03;56.15;;;24.33;;
48161;SDS011;33950;48.154;16.316;2023-02-15T07:00:49;57.08;;;24.55;;
48161;SDS011;33950;48.154;16.316;2023-02-15T07:03:37;48.65;;;21.90;;
48161;SDS011;33950;48.154;16.316;2023-02-15T07:06:24;55.03;;;25.05;;
48161;SDS011;33950;48.154;16.316;2023-02-15T07:09:10;50.55;;;22.90;;
48161;SDS011;33950;48.154;16.316;2023-02-15T07:11:58;61.40;;;25.80;;
48161;SDS011;33950;48.154;16.316;2023-02-15T07:15:03;56.92;;;23.70;;
48161;SDS011;33950;48.154;16.316;2023-02-15T07:17:52;57.28;;;24.83;;
48161;SDS011;33950;48.154;16.316;2023-02-15T07:20:38;52.88;;;22.33;;
48161;SDS011;33950;48.154;16.316;2023-02-15T07:23:28;55.08;;;23.92;;
48161;SDS011;33950;48.154;16.316;2023-02-15T07:26:14;59.83;;;24.90;;
48161;SDS011;33950;48.154;16.316;2023-02-15T07:29:00;55.03;;;25.50;;
48161;SDS011;33950;48.154;16.316;2023-02-15T07:31:46;53.20;;;24.48;;
48161;SDS011;33950;48.154;16.316;2023-02-15T07:34:32;53.65;;;23.90;;
48161;SDS011;33950;48.154;16.316;2023-02-15T07:37:18;54.78;;;24.85;;
48161;SDS011;33950;48.154;16.316;2023-02-15T07:40:06;56.42;;;24.05;;
48161;SDS011;33950;48.154;16.316;2023-02-15T07:42:53;56.60;;;25.00;;
48161;SDS011;33950;48.154;16.316;2023-02-15T07:45:40;68.20;;;26.33;;
48161;SDS011;33950;48.154;16.316;2023-02-15T07:48:26;58.05;;;25.42;;
48161;SDS011;33950;48.154;16.316;2023-02-15T07:51:12;50.40;;;22.67;;
48161;SDS011;33950;48.154;16.316;2023-02-15T07:53:59;55.17;;;22.75;;
48161;SDS011;33950;48.154;16.316;2023-02-15T07:56:47;50.83;;;22.25;;
48161;SDS011;33950;48.154;16.316;2023-02-15T07:59:33;53.58;;;22.75;;
48161;SDS011;33950;48.154;16.316;2023-02-15T08:02:19;52.30;;;22.75;;
48161;SDS011;33950;48.154;16.316;2023-02-15T08:05:05;55.33;;;23.23;;
48161;SDS011;33950;48.154;16.316;2023-02-15T08:07:51;55.38;;;23.23;;
48161;SDS011;33950;48.154;16.316;2023-02-15T08:10:37;65.68;;;24.35;;
48161;SDS011;33950;48.154;16.316;2023-02-15T08:13:58;55.58;;;24.17;;
48161;SDS011;33950;48.154;16.316;2023-02-15T08:16:46;58.28;;;25.10;;
48161;SDS011;33950;48.154;16.316;2023-02-15T08:19:34;63.25;;;26.98;;
48161;SDS011;33950;48.154;16.316;2023-02-15T08:22:20;56.97;;;24.90;;
48161;SDS011;33950;48.154;16.316;2023-02-15T08:25:07;52.80;;;22.35;;
48161;SDS011;33950;48.154;16.316;2023-02-15T08:27:53;59.35;;;23.27;;
48161;SDS011;33950;48.154;16.316;2023-02-15T08:30:40;58.65;;;24.67;;
48161;SDS011;33950;48.154;16.316;2023-02-15T08:33:26;51.08;;;22.55;;
48161;SDS011;33950;48.154;16.316;2023-02-15T08:36:14;53.83;;;24.40;;
48161;SDS011;33950;48.154;16.316;2023-02-15T08:39:02;55.63;;;23.25;;
48161;SDS011;33950;48.154;16.316;2023-02-15T08:41:50;56.42;;;23.00;;
48161;SDS011;33950;48.154;16.316;2023-02-15T08:44:36;59.72;;;25.50;;
48161;SDS011;33950;48.154;16.316;2023-02-15T08:47:24;64.18;;;24.40;;
48161;SDS011;33950;48.154;16.316;2023-02-15T08:50:10;57.33;;;24.95;;
48161;SDS011;33950;48.154;16.316;2023-02-15T08:52:56;56.20;;;25.52;;
48161;SDS011;33950;48.154;16.316;2023-02-15T08:55:42;52.22;;;24.65;;
48161;SDS011;33950;48.154;16.316;2023-02-15T08:58:29;55.78;;;25.15;;
48161;SDS011;33950;48.154;16.316;2023-02-15T09:01:17;62.47;;;25.38;;
48161;SDS011;33950;48.154;16.316;2023-02-15T09:04:09;58.03;;;24.75;;
48161;SDS011;33950;48.154;16.316;2023-02-15T09:06:56;59.95;;;25.27;;
48161;SDS011;33950;48.154;16.316;2023-02-15T09:09:42;52.92;;;24.00;;
48161;SDS011;33950;48.154;16.316;2023-02-15T09:12:28;53.10;;;23.88;;
48161;SDS011;33950;48.154;16.316;2023-02-15T09:15:14;56.28;;;23.92;;
48161;SDS011;33950;48.154;16.316;2023-02-15T09:18:00;57.67;;;24.50;;
48161;SDS011;33950;48.154;16.316;2023-02-15T09:20:52;57.47;;;25.63;;
48161;SDS011;33950;48.154;16.316;2023-02-15T09:23:38;56.60;;;24.52;;
48161;SDS011;33950;48.154;16.316;2023-02-15T09:26:25;55.13;;;24.17;;
48161;SDS011;33950;48.154;16.316;2023-02-15T09:29:13;54.67;;;24.92;;
48161;SDS011;33950;48.154;16.316;2023-02-15T09:32:02;55.40;;;24.08;;
48161;SDS011;33950;48.154;16.316;2023-02-15T09:34:48;58.45;;;24.33;;
48161;SDS011;33950;48.154;16.316;2023-02-15T09:37:36;53.13;;;23.67;;
48161;SDS011;33950;48.154;16.316;2023-02-15T09:40:22;54.47;;;24.88;;
48161;SDS011;33950;48.154;16.316;2023-02-15T09:43:11;54.55;;;24.77;;
48161;SDS011;33950;48.154;16.316;2023-02-15T09:46:14;58.13;;;25.00;;
48161;SDS011;33950;48.154;16.316;2023-02-15T09:49:26;59.42;;;24.38;;
48161;SDS011;33950;48.154;16.316;2023-02-15T09:52:27;56.50;;;25.30;;
48161;SDS011;33950;48.154;16.316;2023-02-15T09:55:24;67.78;;;25.63;;
48161;SDS011;33950;48.154;16.316;2023-02-15T09:58:27;53.13;;;23.35;;
48161;SDS011;33950;48.154;16.316;2023-02-15T10:01:25;60.30;;;24.33;;
48161;SDS011;33950;48.154;16.316;2023-02-15T10:04:31;57.95;;;24.55;;
48161;SDS011;33950;48.154;16.316;2023-02-15T10:07:36;61.53;;;24.10;;
48161;SDS011;33950;48.154;16.316;2023-02-15T10:10:37;51.78;;;23.88;;
48161;SDS011;33950;48.154;16.316;2023-02-15T10:13:34;55.95;;;24.90;;
48161;SDS011;33950;48.154;16.316;2023-02-15T10:16:28;57.53;;;24.15;;
48161;SDS011;33950;48.154;16.316;2023-02-15T10:19:23;55.47;;;24.25;;
48161;SDS011;33950;48.154;16.316;2023-02-15T10:22:19;54.42;;;23.73;;
48161;SDS011;33950;48.154;16.316;2023-02-15T10:25:20;62.70;;;26.20;;
48161;SDS011;33950;48.154;16.316;2023-02-15T10:28:18;52.65;;;23.00;;
48161;SDS011;33950;48.154;16.316;2023-02-15T10:31:09;55.53;;;23.67;;
48161;SDS011;33950;48.154;16.316;2023-02-15T10:37:14;55.50;;;23.38;;
48161;SDS011;33950;48.154;16.316;2023-02-15T10:40:25;57.17;;;23.65;;
48161;SDS011;33950;48.154;16.316;2023-02-15T10:43:24;49.17;;;23.40;;
48161;SDS011;33950;48.154;16.316;2023-02-15T10:46:27;49.22;;;22.95;;
48161;SDS011;33950;48.154;16.316;2023-02-15T10:49:50;60.45;;;24.33;;
48161;SDS011;33950;48.154;16.316;2023-02-15T10:52:51;60.72;;;25.92;;
48161;SDS011;33950;48.154;16.316;2023-02-15T10:55:52;61.78;;;25.58;;
48161;SDS011;33950;48.154;16.316;2023-02-15T10:58:47;60.00;;;24.95;;
48161;SDS011;33950;48.154;16.316;2023-02-15T11:01:48;50.80;;;23.10;;
48161;SDS011;33950;48.154;16.316;2023-02-15T11:04:43;59.90;;;24.52;;
48161;SDS011;33950;48.154;16.316;2023-02-15T11:07:35;54.65;;;23.98;;
48161;SDS011;33950;48.154;16.316;2023-02-15T11:10:29;56.92;;;24.23;;
48161;SDS011;33950;48.154;16.316;2023-02-15T11:13:19;62.92;;;24.20;;
48161;SDS011;33950;48.154;16.316;2023-02-15T11:16:12;58.95;;;24.05;;
48161;SDS011;33950;48.154;16.316;2023-02-15T11:19:03;54.17;;;23.65;;
48161;SDS011;33950;48.154;16.316;2023-02-15T11:21:54;58.50;;;22.95;;
48161;SDS011;33950;48.154;16.316;2023-02-15T11:24:44;57.20;;;22.92;;
48161;SDS011;33950;48.154;16.316;2023-02-15T11:27:32;53.55;;;23.65;;
48161;SDS011;33950;48.154;16.316;2023-02-15T11:30:19;53.78;;;21.95;;
48161;SDS011;33950;48.154;16.316;2023-02-15T11:33:12;55.90;;;23.92;;
48161;SDS011;33950;48.154;16.316;2023-02-15T11:36:05;61.70;;;24.45;;
48161;SDS011;33950;48.154;16.316;2023-02-15T11:38:56;61.60;;;25.17;;
48161;SDS011;33950;48.154;16.316;2023-02-15T11:41:47;51.90;;;22.88;;
48161;SDS011;33950;48.154;16.316;2023-02-15T11:44:40;58.75;;;24.50;;
48161;SDS011;33950;48.154;16.316;2023-02-15T11:47:30;63.90;;;23.95;;
48161;SDS011;33950;48.154;16.316;2023-02-15T11:50:19;56.50;;;24.05;;
48161;SDS011;33950;48.154;16.316;2023-02-15T11:53:09;59.65;;;24.73;;
48161;SDS011;33950;48.154;16.316;2023-02-15T11:56:00;63.93;;;25.70;;
48161;SDS011;33950;48.154;16.316;2023-02-15T11:58:50;61.22;;;24.00;;
48161;SDS011;33950;48.154;16.316;2023-02-15T12:01:40;53.90;;;24.08;;
48161;SDS011;33950;48.154;16.316;2023-02-15T12:04:29;62.10;;;25.20;;
48161;SDS011;33950;48.154;16.316;2023-02-15T12:07:21;58.47;;;26.20;;
48161;SDS011;33950;48.154;16.316;2023-02-15T12:10:15;63.03;;;25.15;;
48161;SDS011;33950;48.154;16.316;2023-02-15T12:13:08;59.38;;;25.30;;
48161;SDS011;33950;48.154;16.316;2023-02-15T12:15:56;60.22;;;25.63;;
48161;SDS011;33950;48.154;16.316;2023-02-15T12:18:44;63.25;;;24.65;;
48161;SDS011;33950;48.154;16.316;2023-02-15T12:21:39;60.70;;;25.85;;
48161;SDS011;33950;48.154;16.316;2023-02-15T12:24:29;63.72;;;24.02;;
48161;SDS011;33950;48.154;16.316;2023-02-15T12:27:18;60.00;;;25.92;;
48161;SDS011;33950;48.154;16.316;2023-02-15T12:30:11;53.90;;;24.55;;
48161;SDS011;33950;48.154;16.316;2023-02-15T12:33:05;59.05;;;26.17;;
48161;SDS011;33950;48.154;16.316;2023-02-15T12:36:02;58.08;;;25.90;;
48161;SDS011;33950;48.154;16.316;2023-02-15T12:39:16;64.57;;;26.20;;
48161;SDS011;33950;48.154;16.316;2023-02-15T12:42:13;66.07;;;26.08;;
48161;SDS011;33950;48.154;16.316;2023-02-15T12:45:01;60.10;;;25.20;;
48161;SDS011;33950;48.154;16.316;2023-02-15T12:47:53;62.33;;;25.40;;
48161;SDS011;33950;48.154;16.316;2023-02-15T12:50:54;64.40;;;26.63;;
48161;SDS011;33950;48.154;16.316;2023-02-15T12:53:53;62.78;;;26.23;;
48161;SDS011;33950;48.154;16.316;2023-02-15T12:56:39;59.20;;;26.00;;
48161;SDS011;33950;48.154;16.316;2023-02-15T12:59:27;58.72;;;26.00;;
48161;SDS011;33950;48.154;16.316;2023-02-15T13:02:15;58.38;;;25.60;;
48161;SDS011;33950;48.154;16.316;2023-02-15T13:05:14;60.63;;;26.17;;
48161;SDS011;33950;48.154;16.316;2023-02-15T13:08:08;59.08;;;26.65;;
48161;SDS011;33950;48.154;16.316;2023-02-15T13:10:57;56.97;;;26.27;;
48161;SDS011;33950;48.154;16.316;2023-02-15T13:13:47;57.70;;;26.40;;
48161;SDS011;33950;48.154;16.316;2023-02-15T13:16:40;58.47;;;26.30;;
48161;SDS011;33950;48.154;16.316;2023-02-15T13:19:29;62.00;;;26.10;;
48161;SDS011;33950;48.154;16.316;2023-02-15T13:22:20;64.57;;;25.48;;
48161;SDS011;33950;48.154;16.316;2023-02-15T13:25:11;59.30;;;25.70;;
48161;SDS011;33950;48.154;16.316;2023-02-15T13:28:03;60.00;;;24.63;;
48161;SDS011;33950;48.154;16.316;2023-02-15T13:30:50;61.03;;;25.65;;
48161;SDS011;33950;48.154;16.316;2023-02-15T13:33:38;56.72;;;25.63;;
48161;SDS011;33950;48.154;16.316;2023-02-15T13:36:33;52.50;;;24.77;;
48161;SDS011;33950;48.154;16.316;2023-02-15T13:39:28;56.88;;;23.42;;
48161;SDS011;33950;48.154;16.316;2023-02-15T13:42:20;45.45;;;22.42;;
48161;SDS011;33950;48.154;16.316;2023-02-15T13:45:16;54.55;;;25.13;;
48161;SDS011;33950;48.154;16.316;2023-02-15T13:48:18;51.55;;;23.65;;
48161;SDS011;33950;48.154;16.316;2023-02-15T13:51:17;53.25;;;23.38;;
48161;SDS011;33950;48.154;16.316;2023-02-15T13:54:11;56.65;;;25.23;;
48161;SDS011;33950;48.154;16.316;2023-02-15T13:57:23;54.95;;;25.15;;
48161;SDS011;33950;48.154;16.316;2023-02-15T14:00:25;55.05;;;25.48;;
48161;SDS011;33950;48.154;16.316;2023-02-15T14:03:38;52.05;;;24.75;;
48161;SDS011;33950;48.154;16.316;2023-02-15T14:06:49;58.47;;;23.55;;
48161;SDS011;33950;48.154;16.316;2023-02-15T14:09:53;50.83;;;23.85;;
48161;SDS011;33950;48.154;16.316;2023-02-15T14:12:57;52.83;;;24.00;;
48161;SDS011;33950;48.154;16.316;2023-02-15T14:16:05;49.20;;;24.83;;
48161;SDS011;33950;48.154;16.316;2023-02-15T14:19:01;51.30;;;24.67;;
48161;SDS011;33950;48.154;16.316;2023-02-15T14:21:57;48.65;;;23.55;;
48161;SDS011;33950;48.154;16.316;2023-02-15T14:24:51;47.80;;;24.33;;
48161;SDS011;33950;48.154;16.316;2023-02-15T14:28:01;55.33;;;24.57;;
48161;SDS011;33950;48.154;16.316;2023-02-15T14:30:53;56.00;;;24.90;;
48161;SDS011;33950;48.154;16.316;2023-02-15T14:33:40;47.97;;;23.95;;
48161;SDS011;33950;48.154;16.316;2023-02-15T14:36:32;52.20;;;24.40;;
48161;SDS011;33950;48.154;16.316;2023-02-15T14:39:25;51.22;;;23.63;;
48161;SDS011;33950;48.154;16.316;2023-02-15T14:42:36;57.80;;;24.73;;
48161;SDS011;33950;48.154;16.316;2023-02-15T14:45:30;51.63;;;25.10;;
48161;SDS011;33950;48.154;16.316;2023-02-15T14:48:24;58.72;;;23.55;;
48161;SDS011;33950;48.154;16.316;2023-02-15T14:54:59;56.50;;;25.15;;
48161;SDS011;33950;48.154;16.316;2023-02-15T14:57:55;55.30;;;25.50;;
48161;SDS011;33950;48.154;16.316;2023-02-15T15:00:43;55.20;;;24.80;;
48161;SDS011;33950;48.154;16.316;2023-02-15T15:03:29;57.55;;;25.73;;
48161;SDS011;33950;48.154;16.316;2023-02-15T15:06:23;47.88;;;23.10;;
48161;SDS011;33950;48.154;16.316;2023-02-15T15:09:12;55.45;;;23.10;;
48161;SDS011;33950;48.154;16.316;2023-02-15T15:12:35;51.47;;;25.15;;
48161;SDS011;33950;48.154;16.316;2023-02-15T15:15:32;58.83;;;25.75;;
48161;SDS011;33950;48.154;16.316;2023-02-15T15:18:42;55.03;;;23.85;;
48161;SDS011;33950;48.154;16.316;2023-02-15T15:24:48;56.30;;;25.42;;
48161;SDS011;33950;48.154;16.316;2023-02-15T15:27:42;53.78;;;25.48;;
48161;SDS011;33950;48.154;16.316;2023-02-15T15:37:15;58.72;;;27.20;;
48161;SDS011;33950;48.154;16.316;2023-02-15T15:47:22;58.90;;;26.90;;
48161;SDS011;33950;48.154;16.316;2023-02-15T15:50:19;56.28;;;26.58;;
48161;SDS011;33950;48.154;16.316;2023-02-15T15:53:05;62.25;;;26.25;;
48161;SDS011;33950;48.154;16.316;2023-02-15T15:56:03;65.05;;;26.60;;
48161;SDS011;33950;48.154;16.316;2023-02-15T15:58:52;64.40;;;26.63;;
48161;SDS011;33950;48.154;16.316;2023-02-15T16:01:43;61.45;;;27.17;;
48161;SDS011;33950;48.154;16.316;2023-02-15T16:04:31;68.03;;;28.08;;
48161;SDS011;33950;48.154;16.316;2023-02-15T16:07:21;61.42;;;27.17;;
48161;SDS011;33950;48.154;16.316;2023-02-15T16:10:20;56.35;;;26.48;;
48161;SDS011;33950;48.154;16.316;2023-02-15T16:13:07;60.33;;;27.35;;
48161;SDS011;33950;48.154;16.316;2023-02-15T16:15:53;61.05;;;26.67;;
48161;SDS011;33950;48.154;16.316;2023-02-15T16:18:42;60.40;;;28.05;;
48161;SDS011;33950;48.154;16.316;2023-02-15T16:21:29;61.95;;;27.20;;
48161;SDS011;33950;48.154;16.316;2023-02-15T16:24:22;63.15;;;27.42;;
48161;SDS011;33950;48.154;16.316;2023-02-15T16:30:24;67.13;;;26.35;;
48161;SDS011;33950;48.154;16.316;2023-02-15T16:33:13;63.78;;;28.42;;
48161;SDS011;33950;48.154;16.316;2023-02-15T16:36:03;66.63;;;29.85;;
48161;SDS011;33950;48.154;16.316;2023-02-15T16:42:03;71.22;;;30.17;;
48161;SDS011;33950;48.154;16.316;2023-02-15T16:44:50;70.70;;;29.95;;
48161;SDS011;33950;48.154;16.316;2023-02-15T16:47:41;68.18;;;29.83;;
48161;SDS011;33950;48.154;16.316;2023-02-15T16:50:30;74.07;;;30.38;;
48161;SDS011;33950;48.154;16.316;2023-02-15T16:53:21;75.07;;;31.17;;
48161;SDS011;33950;48.154;16.316;2023-02-15T16:56:09;66.78;;;30.55;;
48161;SDS011;33950;48.154;16.316;2023-02-15T16:58:56;66.45;;;30.30;;
48161;SDS011;33950;48.154;16.316;2023-02-15T17:01:43;68.75;;;29.77;;
48161;SDS011;33950;48.154;16.316;2023-02-15T17:04:30;65.53;;;30.33;;